Time;durP1;ratioP1;P1;durP2;ratioP2;P2;SDS_P1;SDS_P2;PMS_P1;PMS_P2;Temp;Humidity;BMP_temperature;BMP_pressure;BME280_temperature;BME280_humidity;BME280_pressure;Samples;Min_cycle;Max_cycle;Signal;HPM_P1;HPM_P2
2022/07/31 00:02:05;;;;;;;7.53;5.12;;;;;;;18.05;100.00;99424.41;4249091;33;33649;-74
2022/07/31 00:04:51;;;;;;;10.77;5.57;;;;;;;18.04;100.00;99420.03;4253904;33;35511;-75
2022/07/31 00:07:38;;;;;;;7.68;5.22;;;;;;;17.96;100.00;99422.69;4257259;33;35658;-76
2022/07/31 00:10:24;;;;;;;9.98;5.75;;;;;;;17.92;100.00;99423.75;4267132;33;34745;-75
2022/07/31 00:13:11;;;;;;;10.23;6.03;;;;;;;17.85;100.00;99413.34;4266587;33;35860;-76
2022/07/31 00:15:57;;;;;;;11.68;5.93;;;;;;;17.71;100.00;99418.56;4242743;33;35230;-75
2022/07/31 00:18:43;;;;;;;8.50;5.45;;;;;;;17.72;100.00;99409.88;4263570;33;35095;-76
2022/07/31 00:21:29;;;;;;;9.20;5.35;;;;;;;17.95;100.00;99415.50;4240162;33;34584;-76
2022/07/31 00:24:16;;;;;;;10.30;5.95;;;;;;;17.95;100.00;99409.16;4257703;33;34678;-75
2022/07/31 00:27:03;;;;;;;9.55;5.75;;;;;;;17.63;100.00;99402.94;4255477;33;34865;-75
2022/07/31 00:29:50;;;;;;;8.88;5.97;;;;;;;17.71;100.00;99411.03;4252745;33;35221;-74
2022/07/31 00:32:36;;;;;;;9.68;6.80;;;;;;;17.57;100.00;99415.50;4265013;33;34653;-75
2022/07/31 00:35:23;;;;;;;10.57;6.70;;;;;;;17.70;100.00;99405.84;4255667;33;35494;-74
2022/07/31 00:38:09;;;;;;;10.32;6.25;;;;;;;17.51;100.00;99401.13;4265667;33;35567;-75
2022/07/31 00:41:12;;;;;;;12.43;6.68;;;;;;;17.44;100.00;99403.72;4250274;33;34185;-73
2022/07/31 00:43:58;;;;;;;8.45;6.60;;;;;;;17.45;100.00;99406.16;4262199;33;34719;-75
2022/07/31 00:46:45;;;;;;;9.68;6.18;;;;;;;17.36;100.00;99413.87;4261284;33;35589;-75
2022/07/31 00:49:32;;;;;;;9.93;6.68;;;;;;;17.28;100.00;99410.12;4247748;33;35389;-76
2022/07/31 00:52:22;;;;;;;8.18;6.10;;;;;;;17.43;100.00;99405.69;4245046;33;34065;-75
2022/07/31 00:55:09;;;;;;;10.02;6.75;;;;;;;17.34;100.00;99424.50;4261774;33;34709;-75
2022/07/31 00:57:55;;;;;;;10.40;5.97;;;;;;;17.45;100.00;99406.16;4260045;33;34990;-73
2022/07/31 01:00:41;;;;;;;9.65;6.20;;;;;;;17.54;100.00;99412.28;4256913;33;34659;-75
2022/07/31 01:03:28;;;;;;;8.75;5.85;;;;;;;17.49;100.00;99398.72;4250468;33;34141;-76
2022/07/31 01:06:14;;;;;;;7.55;5.85;;;;;;;17.86;100.00;99417.72;4264882;33;35836;-75
2022/07/31 01:09:01;;;;;;;6.75;4.85;;;;;;;17.28;100.00;99420.41;4252299;33;35900;-74
2022/07/31 01:12:00;;;;;;;6.82;4.78;;;;;;;17.53;100.00;99421.75;4266424;33;34379;-74
2022/07/31 01:14:49;;;;;;;6.50;4.30;;;;;;;17.76;100.00;99430.16;4258337;33;34050;-74
2022/07/31 01:17:37;;;;;;;7.78;4.07;;;;;;;17.69;100.00;99423.66;4255939;33;34673;-74
2022/07/31 01:20:24;;;;;;;6.93;4.47;;;;;;;17.75;100.00;99439.63;4242132;33;34587;-75
2022/07/31 01:23:20;;;;;;;6.18;4.00;;;;;;;17.67;100.00;99418.50;4258146;33;35706;-75
2022/07/31 01:26:20;;;;;;;5.85;3.50;;;;;;;17.56;100.00;99419.41;4248834;33;34994;-75
2022/07/31 01:29:26;;;;;;;5.70;3.70;;;;;;;17.92;100.00;99419.00;4253235;33;35576;-76
2022/07/31 01:32:16;;;;;;;7.12;3.92;;;;;;;17.52;100.00;99420.13;4247961;33;35015;-75
2022/07/31 01:35:26;;;;;;;6.00;3.53;;;;;;;17.76;100.00;99432.94;4251848;33;34489;-75
2022/07/31 01:38:25;;;;;;;5.10;3.60;;;;;;;17.77;100.00;99422.66;4249499;33;35134;-78
2022/07/31 01:41:13;;;;;;;3.78;3.10;;;;;;;17.85;100.00;99432.75;4252565;33;34652;-76
2022/07/31 01:44:00;;;;;;;4.47;3.25;;;;;;;18.06;100.00;99437.09;4253247;33;34941;-75
2022/07/31 01:46:47;;;;;;;4.20;3.10;;;;;;;17.85;100.00;99432.75;4260371;33;34640;-77
2022/07/31 01:49:34;;;;;;;3.97;3.03;;;;;;;17.69;100.00;99440.28;4257240;33;34080;-76
2022/07/31 01:52:24;;;;;;;5.87;3.33;;;;;;;17.76;100.00;99430.16;4243526;33;35363;-75
2022/07/31 01:55:11;;;;;;;5.07;3.05;;;;;;;17.74;100.00;99440.00;4264928;33;35069;-73
2022/07/31 01:57:59;;;;;;;4.70;3.40;;;;;;;17.76;100.00;99432.94;4251101;33;35398;-75
2022/07/31 02:00:47;;;;;;;4.87;3.25;;;;;;;17.75;100.00;99436.06;4259865;33;34230;-75
2022/07/31 02:03:34;;;;;;;4.45;3.15;;;;;;;17.93;99.94;99437.25;4255593;33;35233;-74
2022/07/31 02:06:30;;;;;;;7.80;2.75;;;;;;;17.86;99.71;99434.34;4239696;33;102238;-76
2022/07/31 02:09:18;;;;;;;4.20;3.10;;;;;;;17.80;99.91;99438.56;4260922;33;34667;-77
2022/07/31 02:12:05;;;;;;;3.78;2.62;;;;;;;17.97;99.05;99435.34;4253970;33;34101;-75
2022/07/31 02:14:55;;;;;;;4.05;2.80;;;;;;;18.03;98.02;99437.84;4260593;33;35526;-76
2022/07/31 02:17:43;;;;;;;4.43;2.60;;;;;;;17.83;100.00;99431.50;4262466;33;34935;-75
2022/07/31 02:20:39;;;;;;;3.58;2.78;;;;;;;17.49;100.00;99433.91;4254706;33;34632;-76
2022/07/31 02:23:27;;;;;;;;;;;;;;;17.80;99.50;99426.69;4250800;33;35347;-77
2022/07/31 02:26:14;;;;;;;3.53;2.60;;;;;;;17.75;99.78;99417.44;4254838;33;35759;-74
2022/07/31 02:29:01;;;;;;;4.82;2.37;;;;;;;17.49;100.00;99412.56;4260455;33;34624;-76
2022/07/31 02:31:49;;;;;;;5.40;3.15;;;;;;;17.64;99.74;99401.78;4265698;33;35232;-75
2022/07/31 02:34:49;;;;;;;4.15;3.00;;;;;;;17.70;99.51;99397.53;4254611;33;33991;-75
2022/07/31 02:37:36;;;;;;;5.07;3.53;;;;;;;17.63;100.00;99397.41;4267648;33;35161;-75
2022/07/31 02:40:24;;;;;;;5.07;2.95;;;;;;;17.49;100.00;99392.38;4251437;33;34877;-76
2022/07/31 02:43:11;;;;;;;5.55;3.12;;;;;;;18.02;99.18;99397.44;4248986;33;34252;-74
2022/07/31 02:45:58;;;;;;;3.95;3.10;;;;;;;17.59;100.00;99379.91;4259982;33;34815;-75
2022/07/31 02:48:44;;;;;;;4.12;3.15;;;;;;;17.40;100.00;99400.91;4269632;33;35710;-76
2022/07/31 02:51:31;;;;;;;4.55;3.08;;;;;;;17.85;98.95;99391.16;4261748;33;34916;-75
2022/07/31 02:54:28;;;;;;;3.87;3.15;;;;;;;17.59;98.61;99379.91;4250067;33;34236;-75
2022/07/31 02:57:14;;;;;;;4.18;3.03;;;;;;;17.60;98.59;99390.63;4261354;33;35153;-75
2022/07/31 03:00:01;;;;;;;5.25;2.85;;;;;;;17.47;99.39;99397.47;4260779;33;35257;-73
2022/07/31 03:02:51;;;;;;;8.30;3.35;;;;;;;17.34;99.37;99394.03;4258838;33;37797;-75
2022/07/31 03:05:38;;;;;;;4.47;2.72;;;;;;;17.41;98.97;99408.03;4252111;33;33395;-75
2022/07/31 03:08:26;;;;;;;3.95;2.42;;;;;;;17.47;98.64;99401.03;4249676;33;34128;-75
2022/07/31 03:11:13;;;;;;;5.60;2.70;;;;;;;17.54;97.91;99395.66;4256703;33;35698;-75
2022/07/31 03:14:00;;;;;;;6.20;2.62;;;;;;;17.53;97.50;99396.84;4263097;33;35116;-75
2022/07/31 03:16:48;;;;;;;4.03;2.62;;;;;;;17.29;98.64;99397.88;4259585;33;34903;-74
2022/07/31 03:19:34;;;;;;;4.68;2.95;;;;;;;17.31;98.59;99400.31;4253125;33;34292;-75
2022/07/31 03:22:20;;;;;;;5.07;3.00;;;;;;;17.48;98.03;99391.56;4246812;33;35382;-75
2022/07/31 03:25:07;;;;;;;4.50;2.90;;;;;;;17.42;98.30;99401.34;4256967;33;35918;-76
2022/07/31 03:27:53;;;;;;;3.90;3.22;;;;;;;17.30;99.21;99402.28;4249282;33;35546;-73
2022/07/31 03:30:41;;;;;;;4.57;3.03;;;;;;;17.29;98.93;99399.84;4255661;33;34179;-75
2022/07/31 03:33:28;;;;;;;6.43;3.40;;;;;;;17.24;99.76;99387.09;4260768;33;34594;-76
2022/07/31 03:36:15;;;;;;;5.03;3.60;;;;;;;17.57;98.65;99393.34;4247284;33;34516;-75
2022/07/31 03:39:01;;;;;;;6.78;3.65;;;;;;;17.72;97.89;99395.22;4265832;33;34724;-75
2022/07/31 03:41:48;;;;;;;6.25;3.97;;;;;;;17.68;98.07;99388.81;4264775;33;33697;-75
2022/07/31 03:44:36;;;;;;;5.78;4.15;;;;;;;17.45;99.44;99392.31;4260427;33;35191;-75
2022/07/31 03:47:22;;;;;;;6.10;3.95;;;;;;;17.53;100.00;99391.28;4247793;33;34952;-77
2022/07/31 03:50:10;;;;;;;6.32;4.07;;;;;;;17.63;99.12;99381.59;4259158;33;34655;-76
2022/07/31 03:52:57;;;;;;;5.10;4.00;;;;;;;17.43;100.00;99394.62;4256216;33;35086;-73
2022/07/31 03:55:43;;;;;;;6.90;4.40;;;;;;;17.26;100.00;99398.59;4258031;33;34701;-77
2022/07/31 03:58:29;;;;;;;7.10;4.35;;;;;;;17.37;100.00;99390.53;4246810;33;35157;-75
2022/07/31 04:01:16;;;;;;;8.75;4.72;;;;;;;17.96;97.27;99397.72;4250234;33;34603;-75
2022/07/31 04:04:06;;;;;;;7.15;4.65;;;;;;;17.52;98.97;99392.44;4259547;33;35345;-75
2022/07/31 04:06:53;;;;;;;6.18;4.65;;;;;;;17.47;99.70;99397.47;4255974;33;35446;-77
2022/07/31 04:09:39;;;;;;;6.20;4.60;;;;;;;17.45;99.72;99391.50;4264878;33;35086;-75
2022/07/31 04:12:26;;;;;;;5.75;4.20;;;;;;;17.33;100.00;99394.38;4257062;33;34775;-76
2022/07/31 04:15:12;;;;;;;7.12;4.00;;;;;;;17.45;98.69;99392.31;4262188;33;35282;-76
2022/07/31 04:17:59;;;;;;;6.37;4.10;;;;;;;17.38;99.75;99397.66;4259445;33;35532;-76
2022/07/31 04:20:46;;;;;;;6.30;4.43;;;;;;;17.33;99.25;99409.03;4252835;33;35008;-76
2022/07/31 04:23:33;;;;;;;5.65;4.18;;;;;;;17.26;99.84;99403.34;4260494;33;34143;-73
2022/07/31 04:26:20;;;;;;;5.93;4.40;;;;;;;17.24;100.00;99405.66;4265363;33;34146;-74
2022/07/31 04:29:12;;;;;;;6.05;4.18;;;;;;;17.27;99.71;99410.47;4259173;33;35483;-74
2022/07/31 04:31:58;;;;;;;5.93;4.03;;;;;;;17.61;97.35;99408.84;4263766;33;35746;-75
2022/07/31 04:34:45;;;;;;;6.72;4.03;;;;;;;17.29;98.31;99405.38;4247078;33;33992;-75
2022/07/31 04:37:32;;;;;;;5.20;3.62;;;;;;;17.34;98.92;99402.34;4262985;33;34240;-74
2022/07/31 04:40:18;;;;;;;6.03;4.05;;;;;;;17.37;98.39;99406.34;4258420;33;35315;-76
2022/07/31 04:43:05;;;;;;;4.18;3.40;;;;;;;17.23;99.37;99395.75;4264570;33;35227;-74
2022/07/31 04:45:51;;;;;;;4.65;3.30;;;;;;;17.05;99.41;99396.16;4257452;33;35530;-74
2022/07/31 04:48:38;;;;;;;6.07;3.50;;;;;;;17.21;99.24;99407.19;4259184;33;34124;-75
2022/07/31 04:51:26;;;;;;;4.70;3.30;;;;;;;17.36;98.39;99402.78;4266771;33;34670;-76
2022/07/31 04:54:13;;;;;;;5.15;3.53;;;;;;;17.23;99.20;99401.31;4244194;33;34765;-74
2022/07/31 04:56:59;;;;;;;5.50;3.55;;;;;;;17.05;100.00;99398.13;4256369;33;35487;-74
2022/07/31 04:59:46;;;;;;;4.05;3.30;;;;;;;17.00;99.84;99384.56;4259853;33;34224;-75
2022/07/31 05:02:46;;;;;;;6.28;3.67;;;;;;;16.97;100.00;99410.19;4257465;33;34722;-76
2022/07/31 05:05:32;;;;;;;7.10;4.07;;;;;;;16.98;100.00;99384.13;4247038;33;34944;-74
2022/07/31 05:08:19;;;;;;;5.82;3.33;;;;;;;16.97;100.00;99393.59;4261013;33;35710;-73
2022/07/31 05:11:21;;;;;;;5.37;3.67;;;;;;;17.20;99.77;99397.28;4263021;33;34447;-74
2022/07/31 05:14:09;;;;;;;5.97;3.35;;;;;;;17.10;100.00;99397.84;4267677;33;34628;-73
2022/07/31 05:16:56;;;;;;;4.57;3.12;;;;;;;17.25;99.96;99398.97;4261113;33;35058;-72
2022/07/31 05:19:44;;;;;;;5.05;3.33;;;;;;;16.94;100.00;99408.16;4257220;33;34604;-72
2022/07/31 05:22:33;;;;;;;4.87;3.40;;;;;;;17.39;100.00;99404.00;4268127;33;34853;-73
2022/07/31 05:25:20;;;;;;;5.87;3.83;;;;;;;16.93;100.00;99409.28;4263739;33;35632;-74
2022/07/31 05:28:06;;;;;;;5.65;3.67;;;;;;;17.17;100.00;99405.53;4266218;33;35083;-73
2022/07/31 05:30:54;;;;;;;6.18;3.55;;;;;;;16.85;100.00;99413.87;4267349;33;34737;-74
2022/07/31 05:33:41;;;;;;;6.07;4.00;;;;;;;16.96;100.00;99414.94;4265363;33;35008;-72
2022/07/31 05:36:27;;;;;;;8.40;5.18;;;;;;;16.49;100.00;99406.63;4255609;33;35194;-72
2022/07/31 05:39:16;;;;;;;6.72;4.60;;;;;;;16.13;100.00;99417.53;4263544;33;36034;-74
2022/07/31 05:42:04;;;;;;;6.95;4.37;;;;;;;16.19;100.00;99418.91;4266598;33;34594;-73
2022/07/31 05:44:51;;;;;;;11.05;4.90;;;;;;;16.35;100.00;99415.34;4253546;33;34188;-74
2022/07/31 05:47:37;;;;;;;6.30;4.45;;;;;;;16.91;100.00;99429.03;4270367;33;33664;-73
2022/07/31 05:50:26;;;;;;;7.53;4.70;;;;;;;16.26;100.00;99420.25;4264136;33;35011;-74
2022/07/31 05:53:15;;;;;;;7.10;4.47;;;;;;;16.22;100.00;99424.84;4267068;33;34745;-74
2022/07/31 05:56:04;;;;;;;7.87;4.05;;;;;;;16.47;100.00;99423.56;4266844;33;34213;-73
2022/07/31 05:58:50;;;;;;;5.37;4.00;;;;;;;16.51;100.00;99431.97;4258608;33;35554;-74
2022/07/31 06:01:37;;;;;;;5.85;4.15;;;;;;;16.54;100.00;99437.59;4262625;33;34997;-73
2022/07/31 06:04:23;;;;;;;5.37;4.20;;;;;;;16.55;100.00;99439.19;4259293;33;34780;-74
2022/07/31 06:07:10;;;;;;;6.32;3.83;;;;;;;16.51;100.00;99430.00;4263662;33;35362;-75
2022/07/31 06:09:57;;;;;;;7.72;4.18;;;;;;;16.43;100.00;99433.72;4265979;33;34713;-74
2022/07/31 06:12:43;;;;;;;7.28;3.60;;;;;;;16.77;100.00;99439.75;4259174;33;35036;-74
2022/07/31 06:15:29;;;;;;;6.37;3.90;;;;;;;16.56;100.00;99443.56;4265743;33;35558;-74
2022/07/31 06:18:21;;;;;;;6.05;3.78;;;;;;;16.62;100.00;99436.59;4258448;33;34154;-74
2022/07/31 06:21:08;;;;;;;5.35;3.80;;;;;;;16.52;100.00;99439.09;4252747;33;34767;-72
2022/07/31 06:23:55;;;;;;;5.10;3.90;;;;;;;16.63;100.00;99449.28;4256215;33;35123;-75
2022/07/31 06:26:42;;;;;;;5.32;3.75;;;;;;;16.46;100.00;99448.81;4259831;33;34578;-74
2022/07/31 06:29:28;;;;;;;5.68;3.72;;;;;;;16.50;100.00;99444.97;4263911;33;34884;-74
2022/07/31 06:32:27;;;;;;;5.45;3.65;;;;;;;16.26;100.00;99447.88;4261216;33;35432;-74
2022/07/31 06:35:13;;;;;;;6.65;3.78;;;;;;;16.43;100.00;99444.78;4262630;33;35920;-75
2022/07/31 06:38:01;;;;;;;6.32;3.78;;;;;;;16.09;100.00;99449.81;4257905;33;34598;-74
2022/07/31 06:40:50;;;;;;;7.18;4.72;;;;;;;16.14;100.00;99449.56;4257757;33;34093;-75
2022/07/31 06:43:38;;;;;;;6.00;4.32;;;;;;;16.21;100.00;99454.47;4263409;33;34337;-73
2022/07/31 06:46:28;;;;;;;7.20;3.83;;;;;;;16.13;100.00;99456.22;4262789;33;36154;-74
2022/07/31 06:49:17;;;;;;;5.35;3.65;;;;;;;16.31;100.00;99461.47;4265317;33;34699;-74
2022/07/31 06:52:03;;;;;;;5.70;3.80;;;;;;;16.38;100.00;99467.16;4260783;33;34165;-74
2022/07/31 06:54:51;;;;;;;5.75;3.30;;;;;;;16.35;100.00;99459.59;4262402;33;35561;-73
2022/07/31 06:57:37;;;;;;;6.90;3.80;;;;;;;16.59;100.00;99461.38;4265999;33;35947;-74
2022/07/31 07:00:23;;;;;;;7.37;4.75;;;;;;;16.61;100.00;99457.09;4251559;33;34778;-74
2022/07/31 07:03:12;;;;;;;6.35;3.30;;;;;;;16.70;100.00;99456.12;4265007;33;35250;-73
2022/07/31 07:05:58;;;;;;;4.97;3.20;;;;;;;17.08;100.00;99456.34;4260896;33;34770;-74
2022/07/31 07:08:45;;;;;;;5.62;3.40;;;;;;;16.74;100.00;99448.75;4259152;33;35875;-73
2022/07/31 07:11:33;;;;;;;4.20;2.65;;;;;;;17.02;100.00;99446.72;4252494;33;34579;-73
2022/07/31 07:14:19;;;;;;;3.95;2.80;;;;;;;16.88;100.00;99457.44;4266043;33;34241;-73
2022/07/31 07:17:05;;;;;;;4.65;3.05;;;;;;;16.88;100.00;99446.38;4266544;33;34793;-75
2022/07/31 07:19:51;;;;;;;6.37;3.10;;;;;;;17.01;100.00;99450.63;4261286;33;34963;-73
2022/07/31 07:22:40;;;;;;;4.25;2.80;;;;;;;17.39;100.00;99443.59;4258723;33;34607;-74
2022/07/31 07:25:28;;;;;;;4.75;2.35;;;;;;;17.36;100.00;99437.97;4264321;33;33780;-73
2022/07/31 07:28:16;;;;;;;2.97;2.33;;;;;;;17.43;100.00;99447.25;4264290;33;35697;-72
2022/07/31 07:31:15;;;;;;;4.68;2.33;;;;;;;17.31;100.00;99444.59;4252792;33;34935;-73
2022/07/31 07:34:05;;;;;;;5.15;2.67;;;;;;;17.54;100.00;99433.62;4263557;33;34666;-73
2022/07/31 07:36:51;;;;;;;4.10;2.33;;;;;;;17.67;99.61;99435.13;4260088;33;34181;-73
2022/07/31 07:39:38;;;;;;;6.90;2.60;;;;;;;17.53;99.87;99437.56;4259556;33;34685;-75
2022/07/31 07:42:25;;;;;;;4.87;2.58;;;;;;;17.80;98.79;99433.03;4267757;33;34515;-71
2022/07/31 07:45:12;;;;;;;4.00;2.50;;;;;;;17.67;98.72;99439.84;4260525;33;34579;-72
2022/07/31 07:47:59;;;;;;;3.55;2.00;;;;;;;18.06;96.76;99439.88;4255123;33;34110;-72
2022/07/31 07:50:54;;;;;;;3.50;2.05;;;;;;;17.93;96.04;99426.19;4270675;33;35654;-74
2022/07/31 07:53:40;;;;;;;6.35;2.12;;;;;;;18.05;97.04;99436.31;4266872;33;34961;-72
2022/07/31 07:56:29;;;;;;;5.12;2.70;;;;;;;18.14;95.15;99444.41;4269610;33;34905;-73
2022/07/31 07:59:16;;;;;;;5.82;2.12;;;;;;;18.13;95.72;99437.22;4265849;33;34419;-72
2022/07/31 08:02:04;;;;;;;4.78;2.10;;;;;;;18.19;92.99;99435.78;4264350;33;35647;-73
2022/07/31 08:04:51;;;;;;;3.72;1.85;;;;;;;18.37;93.52;99436.91;4263920;33;35074;-74
2022/07/31 08:07:39;;;;;;;4.32;2.15;;;;;;;18.45;92.42;99445.37;4265842;33;34611;-73
2022/07/31 08:10:27;;;;;;;2.53;1.70;;;;;;;18.60;92.03;99441.66;4256211;33;35063;-75
2022/07/31 08:13:14;;;;;;;2.42;1.65;;;;;;;18.75;90.91;99449.09;4240121;33;34495;-74
2022/07/31 08:16:04;;;;;;;2.72;1.77;;;;;;;19.16;88.23;99449.38;4260486;33;36022;-73
2022/07/31 08:18:51;;;;;;;2.87;1.40;;;;;;;19.18;88.14;99469.25;4266060;33;35969;-74
2022/07/31 08:21:38;;;;;;;2.12;1.50;;;;;;;19.18;86.87;99466.47;4262162;33;34177;-73
2022/07/31 08:24:24;;;;;;;3.17;1.67;;;;;;;18.89;89.74;99476.28;4267280;33;35697;-73
2022/07/31 08:27:23;;;;;;;3.80;1.58;;;;;;;18.60;89.49;99466.66;4265601;33;36266;-74
2022/07/31 08:30:25;;;;;;;3.05;1.60;;;;;;;19.17;87.70;99462.06;4269221;33;34613;-74
2022/07/31 08:33:17;;;;;;;3.03;1.58;;;;;;;18.88;87.42;99469.16;4261100;33;34293;-72
2022/07/31 08:36:07;;;;;;;2.58;1.60;;;;;;;19.15;86.26;99466.41;4266939;33;34594;-73
2022/07/31 08:38:54;;;;;;;2.33;1.25;;;;;;;19.52;84.28;99461.00;4260747;33;36022;-74
2022/07/31 08:41:42;;;;;;;2.28;1.20;;;;;;;19.68;83.67;99453.31;4259494;33;34670;-73
2022/07/31 08:44:38;;;;;;;4.55;1.08;;;;;;;19.99;82.38;99459.66;4260817;33;34972;-73
2022/07/31 08:47:25;;;;;;;2.83;1.30;;;;;;;19.91;80.69;99460.75;4260865;33;34563;-72
2022/07/31 08:50:14;;;;;;;1.80;1.30;;;;;;;19.70;81.28;99464.88;4245886;33;34898;-73
2022/07/31 08:53:01;;;;;;;2.87;1.42;;;;;;;19.22;84.11;99480.41;4256020;33;34894;-73
2022/07/31 08:55:49;;;;;;;2.97;1.45;;;;;;;18.87;85.11;99464.78;4261409;33;34366;-71
2022/07/31 08:58:43;;;;;;;2.00;1.40;;;;;;;19.01;84.99;99466.97;4248459;33;35494;-71
2022/07/31 09:01:32;;;;;;;3.67;1.50;;;;;;;19.18;84.50;99474.81;4256647;33;35811;-72
2022/07/31 09:04:18;;;;;;;3.10;1.58;;;;;;;18.60;86.11;99486.06;4257357;33;34261;-75
2022/07/31 09:07:09;;;;;;;1.77;1.10;;;;;;;18.60;85.93;99491.63;4267477;33;34103;-71
2022/07/31 09:09:55;;;;;;;2.67;1.20;;;;;;;17.96;89.26;99507.81;4246605;33;34552;-73
2022/07/31 09:12:43;;;;;;;2.58;1.30;;;;;;;18.01;89.17;99484.53;4264454;33;36175;-72
2022/07/31 09:15:30;;;;;;;3.83;1.45;;;;;;;18.19;88.98;99491.25;4251945;33;35572;-70
2022/07/31 09:18:20;;;;;;;3.67;1.30;;;;;;;17.70;90.35;99497.28;4261305;33;34212;-71
2022/07/31 09:21:06;;;;;;;2.05;1.20;;;;;;;17.89;90.49;99505.66;4253567;33;35532;-72
2022/07/31 09:23:53;;;;;;;3.35;1.42;;;;;;;17.86;89.78;99494.50;4257293;33;35865;-72
2022/07/31 09:26:39;;;;;;;2.83;1.35;;;;;;;18.15;89.33;99495.91;4259793;33;34708;-72
2022/07/31 09:29:40;;;;;;;3.53;1.70;;;;;;;18.26;89.27;99507.22;4257363;33;33907;-72
2022/07/31 09:32:27;;;;;;;2.37;1.30;;;;;;;17.91;91.65;99506.13;4255843;33;34365;-72
2022/07/31 09:35:14;;;;;;;3.20;1.67;;;;;;;17.80;92.34;99513.41;4267088;33;35041;-73
2022/07/31 09:38:00;;;;;;;2.62;1.40;;;;;;;17.57;92.80;99501.38;4260749;33;34595;-73
2022/07/31 09:40:52;;;;;;;;;;;;;;;17.61;93.05;99489.19;4266196;33;35356;-72
2022/07/31 09:43:53;;;;;;;2.35;1.30;;;;;;;18.22;90.49;99484.97;4262891;33;34460;-72
2022/07/31 09:46:44;;;;;;;4.40;1.48;;;;;;;18.23;89.84;99485.75;4247089;33;34914;-73
2022/07/31 09:49:32;;;;;;;;;;;;;;;17.87;91.56;99496.94;4251001;33;34872;-74
2022/07/31 09:52:19;;;;;;;4.47;1.50;;;;;;;17.95;89.96;99472.91;4257320;33;33278;-72
2022/07/31 09:55:12;;;;;;;1.77;1.20;;;;;;;18.20;90.18;99477.00;4263286;33;35092;-71
2022/07/31 09:58:02;;;;;;;2.70;1.50;;;;;;;18.55;87.08;99487.16;4253634;33;35021;-71
2022/07/31 10:00:51;;;;;;;3.40;1.50;;;;;;;18.68;85.90;99487.81;4250835;33;35423;-73
2022/07/31 10:03:39;;;;;;;4.78;1.52;;;;;;;18.70;85.51;99477.16;4249580;33;35022;-73
2022/07/31 10:06:26;;;;;;;2.17;1.30;;;;;;;18.66;86.42;99487.38;4264114;33;34687;-72
2022/07/31 10:09:14;;;;;;;3.65;1.75;;;;;;;18.43;87.15;99477.03;4253145;33;34636;-72
2022/07/31 10:12:01;;;;;;;5.07;1.58;;;;;;;18.36;87.98;99474.16;4255971;33;34077;-73
2022/07/31 10:14:49;;;;;;;5.32;1.55;;;;;;;18.77;86.90;99491.16;4261244;33;34657;-75
2022/07/31 10:17:38;;;;;;;2.65;1.48;;;;;;;18.03;88.94;99482.19;4261161;33;35286;-73
2022/07/31 10:20:25;;;;;;;2.83;1.50;;;;;;;18.23;87.76;99486.56;4247198;33;34735;-75
2022/07/31 10:23:20;;;;;;;4.37;1.50;;;;;;;18.41;87.49;99487.72;4255417;33;34714;-73
2022/07/31 10:26:07;;;;;;;3.53;1.60;;;;;;;18.50;87.02;99468.06;4248281;33;33907;-76
2022/07/31 10:28:54;;;;;;;2.58;1.65;;;;;;;18.41;88.28;99490.50;4240036;33;34572;-74
2022/07/31 10:31:41;;;;;;;4.82;1.90;;;;;;;18.60;87.14;99483.28;4263774;33;35620;-74
2022/07/31 10:34:27;;;;;;;5.60;1.75;;;;;;;18.37;87.86;99486.84;4254635;33;35306;-72
2022/07/31 10:37:23;;;;;;;3.45;1.60;;;;;;;18.38;86.55;99474.56;4260259;33;35031;-73
2022/07/31 10:40:19;;;;;;;2.62;1.40;;;;;;;18.50;87.45;99484.72;4251078;33;34664;-73
2022/07/31 10:43:08;;;;;;;2.67;1.70;;;;;;;18.57;87.31;99482.06;4251537;33;34936;-73
2022/07/31 10:45:55;;;;;;;4.62;1.77;;;;;;;18.71;86.37;99500.94;4261896;33;34817;-73
2022/07/31 10:48:51;;;;;;;3.37;1.40;;;;;;;18.70;84.40;99488.25;4252268;33;33975;-71
2022/07/31 10:51:50;;;;;;;2.67;1.62;;;;;;;18.70;84.17;99493.78;4253012;33;35599;-71
2022/07/31 10:54:39;;;;;;;3.40;1.40;;;;;;;18.97;84.22;99485.56;4262315;33;34736;-73
2022/07/31 10:57:33;;;;;;;4.90;1.60;;;;;;;19.04;82.02;99492.03;4252328;33;34570;-71
2022/07/31 11:00:40;;;;;;;2.10;1.65;;;;;;;19.14;82.07;99521.16;4259855;33;34128;-72
2022/07/31 11:03:40;;;;;;;4.28;1.40;;;;;;;19.19;80.74;99504.16;4247427;33;34663;-71
2022/07/31 11:06:40;;;;;;;5.05;1.67;;;;;;;19.41;79.93;99521.16;4252451;33;35688;-72
2022/07/31 11:09:27;;;;;;;3.37;1.48;;;;;;;19.33;77.37;99515.50;4260500;33;35405;-72
2022/07/31 11:12:18;;;;;;;1.70;1.30;;;;;;;19.08;77.50;99523.44;4259271;33;34167;-72
2022/07/31 11:15:20;;;;;;;3.22;1.27;;;;;;;19.31;77.19;99540.06;4251091;33;35489;-71
2022/07/31 11:18:14;;;;;;;5.93;1.23;;;;;;;19.55;75.47;99538.06;4258861;33;34943;-72
2022/07/31 11:21:12;;;;;;;2.60;1.40;;;;;;;19.66;75.10;99536.25;4251832;33;33934;-71
2022/07/31 11:24:27;;;;;;;2.62;1.35;;;;;;;19.75;73.25;99525.69;4261707;33;34216;-71
2022/07/31 11:27:14;;;;;;;3.37;1.50;;;;;;;19.94;73.71;99532.28;4260397;33;35246;-71
2022/07/31 11:30:07;;;;;;;2.75;1.50;;;;;;;20.04;72.89;99533.63;4260468;33;36078;-71
2022/07/31 11:32:58;;;;;;;1.90;1.20;;;;;;;20.61;71.13;99542.69;4262559;33;34236;-71
2022/07/31 11:35:44;;;;;;;3.25;1.42;;;;;;;20.50;70.84;99531.41;4261032;33;35065;-71
2022/07/31 11:38:30;;;;;;;4.82;1.23;;;;;;;20.63;70.58;99538.34;4266501;33;34660;-72
2022/07/31 11:41:20;;;;;;;1.98;1.27;;;;;;;20.42;70.35;99555.56;4265448;33;36505;-72
2022/07/31 11:44:07;;;;;;;5.18;1.48;;;;;;;20.55;70.42;99561.72;4258831;33;33649;-70
2022/07/31 11:46:54;;;;;;;2.40;1.27;;;;;;;20.33;71.62;99543.13;4267585;33;34430;-71
2022/07/31 11:49:40;;;;;;;2.47;1.50;;;;;;;20.61;70.10;99549.06;4267024;33;35657;-72
2022/07/31 11:52:34;;;;;;;3.90;1.37;;;;;;;20.35;69.26;99551.87;4264700;33;33916;-73
2022/07/31 11:55:22;;;;;;;3.58;1.50;;;;;;;20.41;69.75;99530.91;4265050;33;34847;-73
2022/07/31 11:58:12;;;;;;;2.90;1.50;;;;;;;20.20;70.78;99550.91;4267691;33;34166;-73
2022/07/31 12:01:00;;;;;;;4.12;1.50;;;;;;;19.95;72.09;99561.69;4242056;33;34311;-73
2022/07/31 12:03:48;;;;;;;3.15;1.02;;;;;;;19.71;72.49;99558.19;4266206;33;35938;-72
2022/07/31 12:06:36;;;;;;;4.65;1.40;;;;;;;19.88;71.14;99551.28;4255125;33;35430;-73
2022/07/31 12:09:23;;;;;;;2.92;1.55;;;;;;;19.86;70.00;99555.62;4253798;33;34074;-72
2022/07/31 12:12:29;;;;;;;4.15;1.98;;;;;;;19.61;71.35;99575.50;4254531;33;34743;-72
2022/07/31 12:15:18;;;;;;;1.92;1.12;;;;;;;19.82;70.60;99563.91;4246015;33;36083;-72
2022/07/31 12:18:04;;;;;;;2.15;1.30;;;;;;;19.62;71.33;99570.72;4257192;33;34634;-71
2022/07/31 12:21:03;;;;;;;2.75;1.40;;;;;;;19.93;71.20;99550.16;4265717;33;34259;-71
2022/07/31 12:23:51;;;;;;;8.63;2.55;;;;;;;19.91;70.56;99570.00;4268552;33;34662;-72
2022/07/31 12:26:37;;;;;;;3.53;1.30;;;;;;;19.62;71.27;99560.41;4256493;33;35653;-72
2022/07/31 12:29:35;;;;;;;2.20;1.30;;;;;;;19.67;71.12;99576.78;4266798;33;34688;-71
2022/07/31 12:32:26;;;;;;;1.80;1.20;;;;;;;19.74;71.35;99573.31;4253088;33;34136;-70
2022/07/31 12:35:12;;;;;;;3.70;1.48;;;;;;;20.00;70.64;99561.38;4254761;33;35465;-70
2022/07/31 12:38:00;;;;;;;2.35;1.35;;;;;;;19.81;72.07;99567.06;4266818;33;35076;-71
2022/07/31 12:41:06;;;;;;;4.18;2.03;;;;;;;19.79;71.83;99572.22;4250837;33;35258;-70
2022/07/31 12:43:55;;;;;;;4.57;1.15;;;;;;;19.37;73.80;99575.88;4264539;33;34343;-70
2022/07/31 12:46:41;;;;;;;2.45;1.20;;;;;;;19.37;73.10;99587.00;4252403;33;34720;-73
2022/07/31 12:49:27;;;;;;;2.67;1.30;;;;;;;19.20;73.49;99579.97;4269346;33;35986;-71
2022/07/31 12:52:14;;;;;;;2.37;1.05;;;;;;;19.23;73.69;99577.22;4264335;33;35478;-71
2022/07/31 12:55:03;;;;;;;3.45;1.52;;;;;;;19.03;74.20;99573.72;4257833;33;35680;-74
2022/07/31 12:57:50;;;;;;;1.37;0.98;;;;;;;19.21;74.62;99573.22;4263411;33;35465;-71
2022/07/31 13:00:37;;;;;;;1.37;0.90;;;;;;;18.93;74.02;99563.25;4266701;33;34712;-70
2022/07/31 13:03:25;;;;;;;1.50;0.98;;;;;;;19.35;74.48;99572.66;4251125;33;35498;-71
2022/07/31 13:06:33;;;;;;;3.53;1.20;;;;;;;19.42;71.61;99584.69;4263390;33;34312;-72
2022/07/31 13:09:19;;;;;;;1.87;1.10;;;;;;;19.17;72.34;99595.38;4258644;33;34660;-70
2022/07/31 13:12:06;;;;;;;1.90;0.85;;;;;;;19.20;72.52;99571.63;4266428;33;34947;-71
2022/07/31 13:14:53;;;;;;;2.65;1.10;;;;;;;19.16;71.92;99574.34;4265170;33;35462;-71